Time;durP1;ratioP1;P1;durP2;ratioP2;P2;SDS_P1;SDS_P2;PMS_P1;PMS_P2;Temp;Humidity;BMP_temperature;BMP_pressure;BME280_temperature;BME280_humidity;BME280_pressure;Samples;Min_cycle;Max_cycle;Signal;HPM_P1;HPM_P2
2023/06/13 00:01:48;;;;;;;9.15;4.57;;;;;;;;;;5061034;27;91790;-76
2023/06/13 00:04:21;;;;;;;17.23;4.70;;;;;;;;;;5061264;27;92073;-76
2023/06/13 00:06:48;;;;;;;;;;;;;;;;;;5062448;27;92509;-76
2023/06/13 00:09:18;;;;;;;10.25;4.65;;;;;;;;;;5062691;27;119689;-76
2023/06/13 00:11:46;;;;;;;9.95;4.70;;;;;;;;;;5072395;27;92174;-76
2023/06/13 00:14:16;;;;;;;8.43;4.68;;;;;;;;;;5072090;27;93571;-76
2023/06/13 00:16:48;;;;;;;7.97;4.35;;;;;;;;;;5064738;27;93672;-76
2023/06/13 00:19:14;;;;;;;9.48;4.93;;;;;;;;;;5068145;27;92065;-77
2023/06/13 00:21:41;;;;;;;10.27;4.80;;;;;;;;;;5059678;27;93886;-76
2023/06/13 00:24:08;;;;;;;9.98;4.60;;;;;;;;;;5066397;27;93717;-76
2023/06/13 00:26:34;;;;;;;10.52;4.90;;;;;;;;;;5074679;27;92734;-76
2023/06/13 00:29:01;;;;;;;9.27;4.90;;;;;;;;;;5065593;27;94156;-76
2023/06/13 00:31:29;;;;;;;9.02;4.70;;;;;;;;;;5060098;27;92528;-77
2023/06/13 00:33:56;;;;;;;8.85;4.70;;;;;;;;;;5066369;27;99274;-76
2023/06/13 00:36:24;;;;;;;;;;;;;;;;;;5062089;27;95510;-76
2023/06/13 00:38:51;;;;;;;10.25;4.95;;;;;;;;;;5064617;27;108624;-77
2023/06/13 00:41:18;;;;;;;10.13;4.60;;;;;;;;;;5063999;27;93531;-77
2023/06/13 00:43:45;;;;;;;9.23;4.70;;;;;;;;;;5064908;27;94641;-76
2023/06/13 00:46:13;;;;;;;9.18;4.97;;;;;;;;;;5071424;27;92956;-77
2023/06/13 00:48:40;;;;;;;9.93;5.45;;;;;;;;;;5076079;27;93657;-77
2023/06/13 00:51:09;;;;;;;9.48;4.85;;;;;;;;;;5059485;27;91837;-77
2023/06/13 00:53:36;;;;;;;10.07;4.60;;;;;;;;;;5070353;27;98342;-77
2023/06/13 00:56:04;;;;;;;9.63;4.63;;;;;;;;;;5057588;27;95448;-76
2023/06/13 00:58:33;;;;;;;10.40;5.53;;;;;;;;;;5066793;27;94628;-76
2023/06/13 01:01:02;;;;;;;10.25;5.10;;;;;;;;;;5074904;27;94865;-75
2023/06/13 01:03:30;;;;;;;8.55;4.40;;;;;;;;;;5064331;27;92238;-77
2023/06/13 01:05:57;;;;;;;11.95;4.90;;;;;;;;;;5058737;27;93834;-77
2023/06/13 01:08:24;;;;;;;11.25;5.20;;;;;;;;;;5074002;27;94917;-76
2023/06/13 01:11:02;;;;;;;9.65;4.90;;;;;;;;;;5075010;27;92646;-76
2023/06/13 01:13:35;;;;;;;10.27;4.88;;;;;;;;;;5066209;27;94848;-77
2023/06/13 01:16:08;;;;;;;11.85;4.63;;;;;;;;;;5073784;27;91944;-76
2023/06/13 01:18:37;;;;;;;10.65;4.95;;;;;;;;;;5069358;27;93087;-76
2023/06/13 01:21:05;;;;;;;9.45;4.53;;;;;;;;;;5053543;27;94241;-75
2023/06/13 01:23:54;;;;;;;9.95;4.55;;;;;;;;;;5065474;27;97076;-77
2023/06/13 01:26:36;;;;;;;9.73;4.60;;;;;;;;;;5050122;27;97424;-77
2023/06/13 01:29:04;;;;;;;8.75;4.90;;;;;;;;;;5070703;27;92710;-76
2023/06/13 01:31:31;;;;;;;8.18;4.70;;;;;;;;;;5059731;27;92845;-77
2023/06/13 01:33:59;;;;;;;9.02;4.50;;;;;;;;;;5075941;27;93509;-76
2023/06/13 01:36:25;;;;;;;;;;;;;;;;;;5070887;27;94169;-75
2023/06/13 01:38:53;;;;;;;10.18;4.50;;;;;;;;;;5062873;27;107330;-76
2023/06/13 01:41:19;;;;;;;9.18;4.88;;;;;;;;;;5059492;27;92481;-75
2023/06/13 01:43:46;;;;;;;10.50;4.88;;;;;;;;;;5063639;27;94304;-76
2023/06/13 01:46:23;;;;;;;9.10;4.88;;;;;;;;;;5062045;27;92552;-76
2023/06/13 01:49:05;;;;;;;8.90;5.07;;;;;;;;;;5061449;27;97522;-77
2023/06/13 01:51:38;;;;;;;8.35;4.82;;;;;;;;;;5060922;27;92539;-76
2023/06/13 01:54:09;;;;;;;9.25;4.60;;;;;;;;;;5072044;27;92453;-75
2023/06/13 01:56:37;;;;;;;9.65;5.13;;;;;;;;;;5074428;27;92764;-76
2023/06/13 01:59:06;;;;;;;11.73;4.70;;;;;;;;;;5072526;27;92629;-75
2023/06/13 02:01:35;;;;;;;9.32;4.55;;;;;;;;;;5074436;27;94955;-77
2023/06/13 02:04:02;;;;;;;10.82;5.10;;;;;;;;;;5075935;27;93184;-76
2023/06/13 02:06:29;;;;;;;9.52;4.78;;;;;;;;;;5059092;27;91697;-76
2023/06/13 02:08:56;;;;;;;9.75;4.90;;;;;;;;;;5073020;27;92044;-77
2023/06/13 02:11:23;;;;;;;8.18;4.60;;;;;;;;;;5078803;27;92197;-77
2023/06/13 02:13:52;;;;;;;10.88;5.00;;;;;;;;;;5067252;27;94913;-75
2023/06/13 02:16:18;;;;;;;10.55;5.15;;;;;;;;;;5059406;27;94943;-74
2023/06/13 02:18:47;;;;;;;9.18;4.68;;;;;;;;;;5068627;27;94410;-76
2023/06/13 02:21:14;;;;;;;8.98;4.88;;;;;;;;;;5058077;27;92734;-75
2023/06/13 02:23:42;;;;;;;10.20;4.75;;;;;;;;;;5057359;27;92698;-76
2023/06/13 02:26:09;;;;;;;12.43;5.25;;;;;;;;;;5075248;27;92162;-76
2023/06/13 02:28:35;;;;;;;9.07;4.50;;;;;;;;;;5077789;27;92705;-76
2023/06/13 02:31:02;;;;;;;12.65;5.20;;;;;;;;;;5075946;27;95157;-75
2023/06/13 02:33:30;;;;;;;10.40;4.82;;;;;;;;;;5069277;27;92135;-76
2023/06/13 02:35:56;;;;;;;9.00;5.18;;;;;;;;;;5062228;27;92959;-76
2023/06/13 02:38:23;;;;;;;12.43;5.50;;;;;;;;;;5059562;27;94926;-75
2023/06/13 02:40:49;;;;;;;8.85;5.13;;;;;;;;;;5061234;27;94843;-75
2023/06/13 02:43:16;;;;;;;10.57;5.22;;;;;;;;;;5062143;27;93137;-77
2023/06/13 02:45:42;;;;;;;9.55;4.93;;;;;;;;;;5072654;27;92217;-77
2023/06/13 02:48:09;;;;;;;10.90;5.20;;;;;;;;;;5063529;27;93854;-76
2023/06/13 02:50:36;;;;;;;9.90;4.72;;;;;;;;;;5077889;27;95499;-77
2023/06/13 02:53:02;;;;;;;10.45;5.20;;;;;;;;;;5066739;27;92473;-77
2023/06/13 02:55:29;;;;;;;10.32;4.82;;;;;;;;;;5061260;27;92423;-77
2023/06/13 02:57:56;;;;;;;11.13;5.18;;;;;;;;;;5048758;27;92584;-77
2023/06/13 03:00:23;;;;;;;9.73;4.97;;;;;;;;;;5067484;27;94472;-76
2023/06/13 03:03:01;;;;;;;11.57;4.93;;;;;;;;;;5059091;27;96920;-77
2023/06/13 03:05:30;;;;;;;8.95;5.03;;;;;;;;;;5060041;27;92489;-76
2023/06/13 03:07:59;;;;;;;9.90;5.32;;;;;;;;;;5065908;27;92693;-76
2023/06/13 03:10:27;;;;;;;9.00;5.10;;;;;;;;;;5074136;27;95807;-76
2023/06/13 03:12:54;;;;;;;9.77;4.70;;;;;;;;;;5079564;27;92320;-76
2023/06/13 03:15:21;;;;;;;9.43;5.20;;;;;;;;;;5074431;27;94762;-76
2023/06/13 03:17:48;;;;;;;9.02;4.82;;;;;;;;;;5068735;27;92395;-76
2023/06/13 03:20:16;;;;;;;9.88;5.32;;;;;;;;;;5073045;27;92351;-76
2023/06/13 03:22:55;;;;;;;11.38;5.43;;;;;;;;;;5073892;27;93169;-76
2023/06/13 03:25:21;;;;;;;10.27;5.45;;;;;;;;;;5065202;27;92340;-76
2023/06/13 03:27:49;;;;;;;8.73;5.10;;;;;;;;;;5060940;27;94612;-76
2023/06/13 03:30:16;;;;;;;10.32;5.43;;;;;;;;;;5057550;27;95595;-76
2023/06/13 03:32:42;;;;;;;9.38;5.20;;;;;;;;;;5076640;27;94539;-76
2023/06/13 03:35:09;;;;;;;10.27;5.15;;;;;;;;;;5070177;27;93936;-76
2023/06/13 03:37:36;;;;;;;8.88;5.40;;;;;;;;;;5078485;27;92302;-76
2023/06/13 03:40:04;;;;;;;9.50;5.07;;;;;;;;;;5049746;27;94925;-76
2023/06/13 03:42:31;;;;;;;9.90;5.18;;;;;;;;;;5052189;27;94785;-76
2023/06/13 03:44:58;;;;;;;11.20;5.50;;;;;;;;;;5058924;27;91821;-75
2023/06/13 03:47:25;;;;;;;11.63;5.30;;;;;;;;;;5059743;27;92618;-75
2023/06/13 03:49:52;;;;;;;10.10;5.82;;;;;;;;;;5059291;27;93249;-75
2023/06/13 03:52:18;;;;;;;11.02;6.18;;;;;;;;;;5073877;27;94594;-75
2023/06/13 03:54:45;;;;;;;12.73;6.30;;;;;;;;;;5059394;27;95167;-75
2023/06/13 03:57:12;;;;;;;10.25;5.90;;;;;;;;;;5062112;27;93481;-76
2023/06/13 03:59:39;;;;;;;10.35;5.82;;;;;;;;;;5063000;27;92526;-77
2023/06/13 04:02:07;;;;;;;9.98;5.55;;;;;;;;;;5062491;27;94770;-76
2023/06/13 04:04:35;;;;;;;11.13;5.50;;;;;;;;;;5068208;27;92298;-77
2023/06/13 04:07:05;;;;;;;11.35;5.90;;;;;;;;;;5079380;27;94585;-77
2023/06/13 04:09:32;;;;;;;11.50;5.90;;;;;;;;;;5057898;27;94403;-75
2023/06/13 04:12:00;;;;;;;10.27;5.53;;;;;;;;;;5069508;27;93700;-75
2023/06/13 04:14:27;;;;;;;9.15;5.10;;;;;;;;;;5058834;27;92505;-75
2023/06/13 04:16:54;;;;;;;11.25;5.38;;;;;;;;;;5062758;27;97591;-75
2023/06/13 04:19:21;;;;;;;11.30;5.68;;;;;;;;;;5061472;27;92452;-75
2023/06/13 04:21:47;;;;;;;11.07;5.28;;;;;;;;;;5058324;27;92674;-75
2023/06/13 04:24:16;;;;;;;8.88;4.97;;;;;;;;;;5058202;27;92955;-75
2023/06/13 04:26:47;;;;;;;9.70;5.38;;;;;;;;;;5075300;27;92080;-75
2023/06/13 04:29:16;;;;;;;10.95;5.38;;;;;;;;;;5052071;27;95677;-76
2023/06/13 04:31:43;;;;;;;13.15;6.03;;;;;;;;;;5059468;27;92237;-76
2023/06/13 04:34:13;;;;;;;10.27;5.68;;;;;;;;;;5067804;27;93043;-76
2023/06/13 04:36:41;;;;;;;11.15;5.65;;;;;;;;;;5073490;27;92719;-76
2023/06/13 04:39:08;;;;;;;10.85;5.82;;;;;;;;;;5061433;27;92790;-76
2023/06/13 04:41:37;;;;;;;9.75;5.30;;;;;;;;;;5072508;27;96080;-76
2023/06/13 04:44:05;;;;;;;10.68;5.63;;;;;;;;;;5060041;27;92461;-77
2023/06/13 04:46:32;;;;;;;10.73;4.95;;;;;;;;;;5060191;27;92526;-77
2023/06/13 04:49:00;;;;;;;10.77;5.70;;;;;;;;;;5058179;27;92616;-76
2023/06/13 04:51:27;;;;;;;13.95;5.90;;;;;;;;;;5062718;27;92277;-76
2023/06/13 04:53:57;;;;;;;10.57;5.25;;;;;;;;;;5070335;27;92539;-76
2023/06/13 04:56:24;;;;;;;11.13;5.97;;;;;;;;;;5059232;27;92648;-74
2023/06/13 04:58:52;;;;;;;10.50;5.55;;;;;;;;;;5059717;27;91761;-75
2023/06/13 05:01:19;;;;;;;12.20;5.63;;;;;;;;;;5071859;27;92543;-75
2023/06/13 05:03:46;;;;;;;11.30;5.63;;;;;;;;;;5063290;27;93758;-76
2023/06/13 05:06:13;;;;;;;12.23;5.90;;;;;;;;;;5040959;27;94509;-75
2023/06/13 05:08:39;;;;;;;10.32;5.15;;;;;;;;;;5070223;27;93877;-75
2023/06/13 05:11:06;;;;;;;11.50;5.22;;;;;;;;;;5055830;27;92527;-75
2023/06/13 05:13:32;;;;;;;11.02;5.82;;;;;;;;;;5064194;27;95744;-76
2023/06/13 05:15:59;;;;;;;9.90;5.20;;;;;;;;;;5057614;27;92781;-76
2023/06/13 05:18:29;;;;;;;11.00;5.43;;;;;;;;;;5060252;27;92275;-76
2023/06/13 05:20:56;;;;;;;9.77;5.18;;;;;;;;;;5063924;27;95742;-75
2023/06/13 05:23:23;;;;;;;13.65;5.07;;;;;;;;;;5060845;27;92309;-76
2023/06/13 05:25:49;;;;;;;11.35;5.00;;;;;;;;;;5067099;27;94460;-76
2023/06/13 05:28:16;;;;;;;11.13;6.07;;;;;;;;;;5073514;27;92743;-76
2023/06/13 05:30:43;;;;;;;11.05;5.30;;;;;;;;;;5070071;27;95160;-76
2023/06/13 05:33:09;;;;;;;12.27;5.75;;;;;;;;;;5063180;27;94840;-76
2023/06/13 05:35:36;;;;;;;10.32;5.10;;;;;;;;;;5065743;27;92585;-75
2023/06/13 05:38:21;;;;;;;9.55;5.13;;;;;;;;;;5058139;27;92401;-75
2023/06/13 05:40:48;;;;;;;11.50;5.75;;;;;;;;;;5058312;27;93308;-75
2023/06/13 05:43:19;;;;;;;13.15;6.10;;;;;;;;;;5055607;27;93056;-75
2023/06/13 05:45:47;;;;;;;9.35;5.07;;;;;;;;;;5059628;27;92613;-76
2023/06/13 05:48:13;;;;;;;9.55;5.10;;;;;;;;;;5057075;27;94440;-75
2023/06/13 05:50:40;;;;;;;11.90;5.07;;;;;;;;;;5057547;27;93371;-76
2023/06/13 05:53:06;;;;;;;11.10;6.07;;;;;;;;;;5060131;27;92492;-76
2023/06/13 05:55:33;;;;;;;9.77;5.00;;;;;;;;;;5059015;27;99819;-75
2023/06/13 05:57:59;;;;;;;8.85;4.93;;;;;;;;;;5067243;27;92739;-75
2023/06/13 06:00:26;;;;;;;10.93;6.00;;;;;;;;;;5061629;27;92982;-75
2023/06/13 06:02:53;;;;;;;10.68;5.57;;;;;;;;;;5061088;27;92395;-76
2023/06/13 06:05:20;;;;;;;11.43;4.97;;;;;;;;;;5074865;27;92545;-75
2023/06/13 06:07:47;;;;;;;13.13;5.63;;;;;;;;;;5079571;27;93750;-76
2023/06/13 06:10:14;;;;;;;10.45;4.75;;;;;;;;;;5069423;27;92152;-77
2023/06/13 06:12:41;;;;;;;10.70;4.90;;;;;;;;;;5075556;27;92497;-76
2023/06/13 06:15:08;;;;;;;11.93;4.85;;;;;;;;;;5064300;27;92750;-77
2023/06/13 06:17:34;;;;;;;10.30;5.05;;;;;;;;;;5074309;27;92148;-76
2023/06/13 06:20:01;;;;;;;11.63;5.25;;;;;;;;;;5074509;27;95163;-76
2023/06/13 06:22:29;;;;;;;11.40;5.18;;;;;;;;;;5072565;27;92246;-76
2023/06/13 06:24:55;;;;;;;8.48;4.43;;;;;;;;;;5060553;27;92417;-76
2023/06/13 06:27:22;;;;;;;9.82;4.45;;;;;;;;;;5060795;27;92748;-76
2023/06/13 06:29:48;;;;;;;10.20;4.85;;;;;;;;;;5063932;27;92514;-76
2023/06/13 06:32:15;;;;;;;9.48;4.50;;;;;;;;;;5063951;27;92239;-76
2023/06/13 06:34:41;;;;;;;13.10;5.05;;;;;;;;;;5058779;27;95676;-76
2023/06/13 06:37:09;;;;;;;11.93;4.40;;;;;;;;;;5060087;27;91999;-76
2023/06/13 06:39:39;;;;;;;11.05;4.93;;;;;;;;;;5069941;27;94545;-76
2023/06/13 06:42:05;;;;;;;10.27;4.57;;;;;;;;;;5062714;27;93004;-76
2023/06/13 06:44:41;;;;;;;9.13;4.57;;;;;;;;;;5055803;27;94946;-75
2023/06/13 06:47:11;;;;;;;10.88;4.70;;;;;;;;;;5064841;27;94664;-76
2023/06/13 06:49:37;;;;;;;9.10;4.50;;;;;;;;;;5065354;27;92878;-76
2023/06/13 06:52:05;;;;;;;9.98;4.47;;;;;;;;;;5070432;27;92805;-75
2023/06/13 06:54:31;;;;;;;9.40;4.72;;;;;;;;;;5060035;27;92842;-76
2023/06/13 06:56:58;;;;;;;13.13;5.20;;;;;;;;;;5060108;27;92945;-76
2023/06/13 06:59:24;;;;;;;14.88;4.78;;;;;;;;;;5061496;27;92697;-77
2023/06/13 07:01:52;;;;;;;11.48;4.95;;;;;;;;;;5066599;27;93221;-76
2023/06/13 07:04:18;;;;;;;;;;;;;;;;;;5051127;27;94833;-77
2023/06/13 07:06:45;;;;;;;8.45;4.60;;;;;;;;;;5066722;27;92343;-77
2023/06/13 07:09:11;;;;;;;11.80;4.63;;;;;;;;;;5063169;27;96622;-76
2023/06/13 07:11:38;;;;;;;9.10;4.57;;;;;;;;;;5066698;27;92407;-77
2023/06/13 07:14:05;;;;;;;9.65;4.78;;;;;;;;;;5060976;27;95429;-77
2023/06/13 07:16:31;;;;;;;9.05;4.40;;;;;;;;;;5066254;27;92152;-77
2023/06/13 07:18:58;;;;;;;9.07;4.80;;;;;;;;;;5075765;27;93418;-76
2023/06/13 07:21:25;;;;;;;9.30;4.43;;;;;;;;;;5059813;27;92812;-76
2023/06/13 07:23:52;;;;;;;9.98;4.35;;;;;;;;;;5062333;27;92219;-77
2023/06/13 07:26:33;;;;;;;9.20;4.63;;;;;;;;;;5069380;27;92265;-76
2023/06/13 07:28:59;;;;;;;9.60;4.35;;;;;;;;;;5068760;27;92759;-77
2023/06/13 07:31:26;;;;;;;8.55;4.47;;;;;;;;;;5065808;27;92583;-77
2023/06/13 07:33:53;;;;;;;9.25;4.18;;;;;;;;;;5064008;27;94901;-76
2023/06/13 07:36:19;;;;;;;7.63;4.20;;;;;;;;;;5067898;27;92261;-77
2023/06/13 07:38:46;;;;;;;8.70;4.53;;;;;;;;;;5060009;27;93211;-77
2023/06/13 07:41:12;;;;;;;9.13;4.50;;;;;;;;;;5061182;27;94338;-77
2023/06/13 07:43:39;;;;;;;7.95;3.95;;;;;;;;;;5062339;27;92068;-77
2023/06/13 07:46:06;;;;;;;9.32;4.32;;;;;;;;;;5065923;27;92339;-77
2023/06/13 07:48:33;;;;;;;8.00;4.22;;;;;;;;;;5072614;27;95045;-77
2023/06/13 07:50:59;;;;;;;9.00;4.15;;;;;;;;;;5065360;27;91583;-76
2023/06/13 07:53:26;;;;;;;8.90;4.20;;;;;;;;;;5063773;27;92859;-75
2023/06/13 07:55:54;;;;;;;8.27;4.20;;;;;;;;;;5070273;27;95859;-75
2023/06/13 07:58:21;;;;;;;8.35;4.40;;;;;;;;;;5069046;27;94926;-78
2023/06/13 08:00:48;;;;;;;7.93;4.03;;;;;;;;;;5065504;27;95016;-77
2023/06/13 08:03:14;;;;;;;7.80;4.40;;;;;;;;;;5075531;27;92256;-77
2023/06/13 08:05:41;;;;;;;8.18;4.15;;;;;;;;;;5065459;27;92786;-77
2023/06/13 08:08:08;;;;;;;10.75;4.43;;;;;;;;;;5062450;27;92237;-77
2023/06/13 08:10:35;;;;;;;8.82;4.38;;;;;;;;;;5070263;27;93219;-76
2023/06/13 08:13:01;;;;;;;8.50;4.43;;;;;;;;;;5079155;27;92328;-76
2023/06/13 08:15:32;;;;;;;8.88;4.30;;;;;;;;;;5055070;27;93877;-76
2023/06/13 08:17:59;;;;;;;8.88;4.35;;;;;;;;;;5067325;27;92321;-76
2023/06/13 08:20:25;;;;;;;9.63;4.13;;;;;;;;;;5076214;27;92818;-76
2023/06/13 08:22:52;;;;;;;9.48;4.30;;;;;;;;;;5063919;27;94798;-75
2023/06/13 08:25:18;;;;;;;8.40;4.07;;;;;;;;;;5059502;27;95332;-75
2023/06/13 08:27:46;;;;;;;7.03;3.63;;;;;;;;;;5063452;27;92718;-76
2023/06/13 08:30:13;;;;;;;9.15;4.20;;;;;;;;;;5070064;27;92708;-75
2023/06/13 08:32:41;;;;;;;8.15;3.90;;;;;;;;;;5053507;27;92442;-76
2023/06/13 08:35:08;;;;;;;9.52;3.85;;;;;;;;;;5075719;27;92366;-77
2023/06/13 08:37:35;;;;;;;7.88;3.83;;;;;;;;;;5072058;27;92933;-77
2023/06/13 08:40:04;;;;;;;9.85;4.10;;;;;;;;;;5075424;27;94344;-77
2023/06/13 08:42:32;;;;;;;7.88;4.05;;;;;;;;;;5078227;27;93058;-76
2023/06/13 08:45:00;;;;;;;8.05;4.30;;;;;;;;;;5065854;27;93563;-76
2023/06/13 08:47:26;;;;;;;7.20;3.70;;;;;;;;;;5068888;27;95776;-76
2023/06/13 08:50:04;;;;;;;8.93;4.18;;;;;;;;;;5070631;27;93946;-76
2023/06/13 08:52:36;;;;;;;8.38;4.18;;;;;;;;;;5070654;27;92521;-77
2023/06/13 08:55:06;;;;;;;7.63;4.13;;;;;;;;;;5067810;27;93216;-76
2023/06/13 08:57:53;;;;;;;9.68;4.20;;;;;;;;;;5064191;27;92455;-77
2023/06/13 09:00:22;;;;;;;8.13;4.30;;;;;;;;;;5065425;27;93779;-77
2023/06/13 09:02:50;;;;;;;8.15;3.85;;;;;;;;;;5064360;27;92526;-75
2023/06/13 09:05:18;;;;;;;11.68;3.97;;;;;;;;;;5056403;27;93160;-75
2023/06/13 09:07:46;;;;;;;8.32;4.20;;;;;;;;;;5063530;27;93189;-76
2023/06/13 09:10:13;;;;;;;8.65;4.20;;;;;;;;;;5062821;27;93482;-76
2023/06/13 09:12:40;;;;;;;7.65;4.32;;;;;;;;;;5063769;27;95170;-76
2023/06/13 09:15:07;;;;;;;7.97;4.22;;;;;;;;;;5064032;27;93149;-75
2023/06/13 09:17:34;;;;;;;8.35;4.03;;;;;;;;;;5062835;27;92552;-76
2023/06/13 09:20:03;;;;;;;8.00;3.92;;;;;;;;;;5079079;27;93231;-74
2023/06/13 09:22:30;;;;;;;7.53;4.13;;;;;;;;;;5068485;27;93285;-76
2023/06/13 09:24:58;;;;;;;7.43;3.72;;;;;;;;;;5080764;27;92190;-76
2023/06/13 09:27:25;;;;;;;8.45;4.03;;;;;;;;;;5081321;27;93069;-76
2023/06/13 09:29:52;;;;;;;7.80;3.85;;;;;;;;;;5064332;27;91310;-75
2023/06/13 09:32:22;;;;;;;8.15;4.25;;;;;;;;;;5062161;27;92279;-75
2023/06/13 09:34:49;;;;;;;8.63;3.80;;;;;;;;;;5075614;27;92736;-77
2023/06/13 09:37:16;;;;;;;;;;;;;;;;;;5063717;27;94587;-78
2023/06/13 09:39:48;;;;;;;12.73;4.07;;;;;;;;;;5061429;27;112886;-78
2023/06/13 09:42:21;;;;;;;8.60;3.88;;;;;;;;;;5059629;27;95368;-78
2023/06/13 09:44:48;;;;;;;12.18;4.20;;;;;;;;;;5045994;27;93318;-78
2023/06/13 09:47:25;;;;;;;9.25;3.80;;;;;;;;;;5059600;27;92424;-78
2023/06/13 09:49:53;;;;;;;10.10;3.92;;;;;;;;;;5061197;27;92221;-78
2023/06/13 09:52:23;;;;;;;11.45;4.40;;;;;;;;;;5068632;27;92354;-77
2023/06/13 09:54:50;;;;;;;8.82;4.15;;;;;;;;;;5068635;27;91657;-78
2023/06/13 09:57:17;;;;;;;9.02;4.30;;;;;;;;;;5058505;27;92315;-78
2023/06/13 09:59:44;;;;;;;;;;;;;;;;;;5060025;27;92367;-78
2023/06/13 10:02:11;;;;;;;7.18;3.60;;;;;;;;;;5071226;27;95115;-78
2023/06/13 10:04:38;;;;;;;7.85;3.92;;;;;;;;;;5065385;27;92059;-78
2023/06/13 10:07:05;;;;;;;7.47;3.92;;;;;;;;;;5066907;27;92168;-78
2023/06/13 10:09:31;;;;;;;7.53;3.70;;;;;;;;;;5067976;27;92700;-79
2023/06/13 10:11:59;;;;;;;7.95;4.00;;;;;;;;;;5060333;27;92678;-78
2023/06/13 10:14:26;;;;;;;7.95;4.05;;;;;;;;;;5077934;27;93528;-78
2023/06/13 10:16:59;;;;;;;7.80;4.13;;;;;;;;;;5081134;27;92072;-78
2023/06/13 10:19:37;;;;;;;8.77;3.90;;;;;;;;;;5063708;27;96890;-78
2023/06/13 10:22:04;;;;;;;12.95;3.83;;;;;;;;;;5060083;27;92698;-78
2023/06/13 10:24:33;;;;;;;7.10;3.60;;;;;;;;;;5058984;27;92368;-78
2023/06/13 10:27:00;;;;;;;8.18;3.97;;;;;;;;;;5057412;27;94521;-78
2023/06/13 10:29:40;;;;;;;8.63;3.88;;;;;;;;;;5061250;27;93790;-77
2023/06/13 10:32:16;;;;;;;7.90;3.88;;;;;;;;;;5060681;27;92540;-77
2023/06/13 10:35:00;;;;;;;8.68;3.95;;;;;;;;;;5072629;27;92991;-78
2023/06/13 10:37:27;;;;;;;;;;;;;;;;;;5060260;27;92130;-78
2023/06/13 10:40:06;;;;;;;8.35;3.85;;;;;;;;;;5078670;27;92441;-78
2023/06/13 10:42:38;;;;;;;8.43;3.92;;;;;;;;;;5068991;27;93294;-78
2023/06/13 10:45:08;;;;;;;6.90;3.90;;;;;;;;;;5061171;27;91607;-78
2023/06/13 10:47:36;;;;;;;8.23;3.97;;;;;;;;;;5061880;27;96482;-78
2023/06/13 10:50:03;;;;;;;8.52;3.70;;;;;;;;;;5063611;27;93276;-78
2023/06/13 10:52:30;;;;;;;8.88;4.20;;;;;;;;;;5073884;27;94897;-78
2023/06/13 10:55:01;;;;;;;8.93;4.05;;;;;;;;;;5057326;27;94563;-78
2023/06/13 10:57:48;;;;;;;7.78;3.90;;;;;;;;;;5083207;27;92420;-78
2023/06/13 11:00:25;;;;;;;8.43;4.40;;;;;;;;;;5075930;27;92460;-78
2023/06/13 11:03:03;;;;;;;9.23;4.10;;;;;;;;;;5063616;27;94775;-78
2023/06/13 11:05:32;;;;;;;8.35;4.10;;;;;;;;;;5062817;27;92187;-78
2023/06/13 11:08:09;;;;;;;;;;;;;;;;;;5047279;27;92522;-78
2023/06/13 11:10:36;;;;;;;7.18;4.03;;;;;;;;;;5063467;27;106559;-78
2023/06/13 11:13:03;;;;;;;7.43;4.10;;;;;;;;;;5066378;27;92099;-78
2023/06/13 11:15:29;;;;;;;7.03;4.00;;;;;;;;;;5080054;27;93030;-78
2023/06/13 11:18:08;;;;;;;8.23;3.72;;;;;;;;;;5079488;27;94416;-78
2023/06/13 11:20:51;;;;;;;9.32;4.18;;;;;;;;;;5063749;27;97196;-78
2023/06/13 11:23:22;;;;;;;7.75;4.10;;;;;;;;;;5075816;27;94323;-78
2023/06/13 11:25:50;;;;;;;7.85;4.13;;;;;;;;;;5075108;27;92045;-78
2023/06/13 11:28:17;;;;;;;7.47;4.03;;;;;;;;;;5062337;27;92588;-77
2023/06/13 11:30:49;;;;;;;8.55;4.13;;;;;;;;;;5076072;27;93114;-78
2023/06/13 11:33:17;;;;;;;8.80;3.95;;;;;;;;;;5067655;27;92677;-77
2023/06/13 11:35:50;;;;;;;9.10;4.22;;;;;;;;;;5065876;27;92376;-79
2023/06/13 11:38:21;;;;;;;9.93;4.85;;;;;;;;;;5061264;27;92266;-79
2023/06/13 11:40:51;;;;;;;14.10;5.63;;;;;;;;;;5045131;27;92614;-78
2023/06/13 11:43:18;;;;;;;22.67;6.10;;;;;;;;;;5059614;27;95070;-78
2023/06/13 11:45:45;;;;;;;16.52;5.93;;;;;;;;;;5062842;27;92184;-78
2023/06/13 11:48:17;;;;;;;17.50;6.25;;;;;;;;;;5054973;27;92944;-79
2023/06/13 11:50:44;;;;;;;15.38;6.18;;;;;;;;;;5063382;27;92432;-79
2023/06/13 11:53:11;;;;;;;15.68;5.93;;;;;;;;;;5064543;27;92544;-79
2023/06/13 11:55:37;;;;;;;;;;;;;;;;;;5076915;27;95449;-78
2023/06/13 11:58:04;;;;;;;16.08;5.97;;;;;;;;;;5085215;27;92587;-78
2023/06/13 12:00:49;;;;;;;14.43;5.57;;;;;;;;;;5079871;27;95638;-77
2023/06/13 12:03:19;;;;;;;13.80;5.70;;;;;;;;;;5061322;27;93055;-77
2023/06/13 12:05:46;;;;;;;15.15;5.38;;;;;;;;;;5078569;27;92174;-78
2023/06/13 12:08:14;;;;;;;12.95;5.35;;;;;;;;;;5079857;27;94600;-78
2023/06/13 12:10:41;;;;;;;12.23;5.43;;;;;;;;;;5080166;27;93129;-78
2023/06/13 12:13:11;;;;;;;14.30;5.03;;;;;;;;;;5081794;27;92389;-78
2023/06/13 12:15:39;;;;;;;14.35;5.03;;;;;;;;;;5080437;27;92676;-78
2023/06/13 12:18:05;;;;;;;10.25;5.30;;;;;;;;;;5080017;27;93031;-78
2023/06/13 12:20:36;;;;;;;11.60;5.70;;;;;;;;;;5073666;27;92257;-79
2023/06/13 12:23:02;;;;;;;11.90;5.10;;;;;;;;;;5062050;27;92728;-79
2023/06/13 12:25:30;;;;;;;10.82;4.70;;;;;;;;;;5043578;27;91553;-80
2023/06/13 12:28:01;;;;;;;10.60;4.65;;;;;;;;;;5043429;27;92201;-79
2023/06/13 12:30:29;;;;;;;11.63;4.93;;;;;;;;;;5073327;27;95158;-78
2023/06/13 12:32:58;;;;;;;12.15;5.18;;;;;;;;;;5068189;27;94603;-79
2023/06/13 12:35:26;;;;;;;11.93;4.75;;;;;;;;;;5067794;27;95475;-79
2023/06/13 12:37:59;;;;;;;11.13;4.97;;;;;;;;;;5068900;27;95945;-79
2023/06/13 12:40:33;;;;;;;11.18;4.82;;;;;;;;;;5061313;27;92153;-79
2023/06/13 12:43:01;;;;;;;9.60;4.20;;;;;;;;;;5064318;27;92493;-78
2023/06/13 12:45:31;;;;;;;11.73;4.40;;;;;;;;;;5059194;27;93173;-78
2023/06/13 12:47:57;;;;;;;11.05;4.90;;;;;;;;;;5061178;27;93830;-78
2023/06/13 12:50:25;;;;;;;9.25;4.30;;;;;;;;;;5060269;27;93896;-78
2023/06/13 12:53:10;;;;;;;11.13;4.60;;;;;;;;;;5063728;27;92089;-79
2023/06/13 12:55:38;;;;;;;8.80;4.07;;;;;;;;;;5060820;27;96820;-79
2023/06/13 12:58:23;;;;;;;9.15;4.38;;;;;;;;;;5068597;27;95102;-79
2023/06/13 13:00:52;;;;;;;9.20;4.50;;;;;;;;;;5076619;27;92609;-79
2023/06/13 13:03:20;;;;;;;9.07;4.05;;;;;;;;;;5068035;27;92769;-78
2023/06/13 13:05:49;;;;;;;8.93;4.40;;;;;;;;;;5072659;27;92824;-78
2023/06/13 13:08:34;;;;;;;9.75;4.32;;;;;;;;;;5074246;27;92268;-79
2023/06/13 13:11:00;;;;;;;9.18;4.30;;;;;;;;;;5072573;27;95683;-78
2023/06/13 13:13:27;;;;;;;9.75;4.32;;;;;;;;;;5059962;27;92144;-79
2023/06/13 13:15:54;;;;;;;10.07;4.40;;;;;;;;;;5062536;27;92393;-79
2023/06/13 13:18:21;;;;;;;8.48;4.35;;;;;;;;;;5081004;27;92581;-78
2023/06/13 13:20:47;;;;;;;8.77;4.15;;;;;;;;;;5080052;27;92261;-78
2023/06/13 13:23:14;;;;;;;7.72;4.38;;;;;;;;;;5076424;27;94736;-78
2023/06/13 13:25:41;;;;;;;;;;;;;;;;;;5076257;27;95193;-78
2023/06/13 13:28:07;;;;;;;9.85;4.18;;;;;;;;;;5070214;27;100008;-78
2023/06/13 13:30:35;;;;;;;11.10;4.55;;;;;;;;;;5065402;27;94303;-78
2023/06/13 13:33:05;;;;;;;8.27;3.85;;;;;;;;;;5070943;27;92860;-78
2023/06/13 13:35:32;;;;;;;8.15;4.00;;;;;;;;;;5074700;27;92606;-77
2023/06/13 13:37:59;;;;;;;8.18;4.10;;;;;;;;;;5068149;27;92616;-78
2023/06/13 13:40:25;;;;;;;8.32;4.50;;;;;;;;;;5067957;27;92040;-78
2023/06/13 13:42:53;;;;;;;10.27;4.45;;;;;;;;;;5065662;27;92151;-79
2023/06/13 13:45:20;;;;;;;10.52;4.78;;;;;;;;;;5073893;27;95627;-78
2023/06/13 13:47:48;;;;;;;8.98;4.45;;;;;;;;;;5067494;27;94747;-78
2023/06/13 13:50:16;;;;;;;8.32;4.65;;;;;;;;;;5078157;27;92959;-78
2023/06/13 13:52:42;;;;;;;9.27;4.18;;;;;;;;;;5069249;27;92121;-79
2023/06/13 13:55:10;;;;;;;8.40;4.18;;;;;;;;;;5077581;27;93062;-79
2023/06/13 13:57:37;;;;;;;7.65;4.00;;;;;;;;;;5070219;27;93116;-78
2023/06/13 14:00:04;;;;;;;8.20;4.15;;;;;;;;;;5065189;27;92035;-79
2023/06/13 14:02:31;;;;;;;8.38;4.15;;;;;;;;;;5072490;27;92473;-78
2023/06/13 14:04:58;;;;;;;9.18;4.28;;;;;;;;;;5076770;27;92037;-78
2023/06/13 14:07:25;;;;;;;8.07;4.20;;;;;;;;;;5065809;27;92184;-77
2023/06/13 14:09:51;;;;;;;;;;;;;;;;;;5068733;27;92846;-79
2023/06/13 14:12:18;;;;;;;7.90;4.35;;;;;;;;;;5073659;27;94537;-79
2023/06/13 14:14:44;;;;;;;8.52;4.22;;;;;;;;;;5076388;27;95130;-78
2023/06/13 14:17:12;;;;;;;7.43;3.97;;;;;;;;;;5072891;27;93021;-79
2023/06/13 14:19:39;;;;;;;8.57;4.30;;;;;;;;;;5063089;27;92359;-78
2023/06/13 14:22:06;;;;;;;7.45;4.22;;;;;;;;;;5068046;27;92286;-78
2023/06/13 14:24:33;;;;;;;9.07;4.03;;;;;;;;;;5075820;27;95221;-78
2023/06/13 14:27:03;;;;;;;;;;;;;;;;;;5080974;27;92159;-79
2023/06/13 14:29:29;;;;;;;8.30;4.00;;;;;;;;;;5079566;27;92330;-79
2023/06/13 14:31:56;;;;;;;7.50;4.03;;;;;;;;;;5069560;27;92602;-79
2023/06/13 14:34:24;;;;;;;9.90;4.07;;;;;;;;;;5069539;27;94976;-79
2023/06/13 14:36:54;;;;;;;7.13;3.88;;;;;;;;;;5052756;27;95864;-79
2023/06/13 14:39:21;;;;;;;8.07;3.90;;;;;;;;;;5048998;27;92432;-79
2023/06/13 14:41:47;;;;;;;;;;;;;;;;;;5068125;27;92368;-79
2023/06/13 14:44:14;;;;;;;8.15;4.43;;;;;;;;;;5074680;27;96153;-79
2023/06/13 14:46:41;;;;;;;8.23;3.90;;;;;;;;;;5066888;27;92292;-79
2023/06/13 14:49:07;;;;;;;;;;;;;;;;;;5078692;27;92242;-79